Time;durP1;ratioP1;P1;durP2;ratioP2;P2;SDS_P1;SDS_P2;PMS_P1;PMS_P2;Temp;Humidity;BMP_temperature;BMP_pressure;BME280_temperature;BME280_humidity;BME280_pressure;Samples;Min_cycle;Max_cycle;Signal;HPM_P1;HPM_P2
2022/06/17 00:00:43;;;;;;;10.73;2.47;;;;;;;14.69;56.15;99492.94;5044990;28;20084;-70
2022/06/17 00:03:09;;;;;;;16.60;2.37;;;;;;;14.65;56.00;99489.16;5007803;28;20397;-69
2022/06/17 00:05:36;;;;;;;16.83;2.40;;;;;;;14.65;56.07;99491.91;5039334;28;20933;-69
2022/06/17 00:08:02;;;;;;;11.05;2.85;;;;;;;14.59;56.29;99492.03;5025519;28;20053;-68
2022/06/17 00:10:29;;;;;;;9.35;2.22;;;;;;;14.55;56.30;99487.47;5025675;28;20081;-69
2022/06/17 00:12:55;;;;;;;;;;;;;;;14.52;56.42;99488.09;5025749;28;20045;-68
2022/06/17 00:15:21;;;;;;;9.07;2.58;;;;;;;14.49;56.35;99485.97;5009069;28;19947;-69
2022/06/17 00:17:53;;;;;;;12.15;2.55;;;;;;;14.49;56.14;99485.97;5042205;28;20041;-69
2022/06/17 00:20:21;;;;;;;12.82;2.60;;;;;;;14.46;56.68;99490.13;5045241;28;20102;-69
2022/06/17 00:22:48;;;;;;;15.52;2.95;;;;;;;14.42;56.80;99483.63;5043641;28;20516;-69
2022/06/17 00:25:22;;;;;;;11.18;2.53;;;;;;;14.37;57.03;99490.03;5029601;28;20053;-76
2022/06/17 00:27:50;;;;;;;13.52;2.83;;;;;;;14.34;57.15;99496.16;5046608;28;20088;-76
2022/06/17 00:30:19;;;;;;;16.90;2.55;;;;;;;14.29;57.45;99499.81;5046540;28;20055;-76
2022/06/17 00:32:45;;;;;;;10.98;2.50;;;;;;;14.25;57.85;99498.81;5043391;28;20417;-76
2022/06/17 00:35:13;;;;;;;21.15;3.25;;;;;;;14.21;57.85;99495.06;5043659;28;20041;-75
2022/06/17 00:37:40;;;;;;;13.90;2.67;;;;;;;14.16;57.94;99497.91;5042352;28;20048;-75
2022/06/17 00:40:12;;;;;;;24.92;2.80;;;;;;;14.18;57.83;99496.47;5026528;28;20100;-75
2022/06/17 00:42:39;;;;;;;10.38;2.22;;;;;;;14.20;57.69;99498.09;5027774;28;20192;-75
2022/06/17 00:45:15;;;;;;;9.15;3.13;;;;;;;14.21;57.86;99499.72;5025257;28;20046;-74
2022/06/17 00:47:46;;;;;;;10.88;2.50;;;;;;;14.20;58.43;99498.91;5005492;28;20135;-75
2022/06/17 00:50:18;;;;;;;21.92;3.25;;;;;;;14.17;58.38;99502.28;5041943;28;20056;-70
2022/06/17 00:52:50;;;;;;;11.80;3.15;;;;;;;14.14;58.50;99500.16;5042779;28;20048;-68
2022/06/17 00:55:25;;;;;;;14.55;2.65;;;;;;;14.04;58.63;99485.47;5044382;28;20451;-76
2022/06/17 00:57:51;;;;;;;11.40;2.72;;;;;;;14.09;58.61;99498.31;5027241;28;20037;-67
2022/06/17 01:00:24;;;;;;;13.93;2.63;;;;;;;14.11;58.76;99506.25;5043705;28;20041;-70
2022/06/17 01:02:55;;;;;;;9.05;2.70;;;;;;;14.12;58.79;99514.19;5040915;28;20075;-69
2022/06/17 01:05:23;;;;;;;13.75;2.80;;;;;;;14.12;59.04;99518.88;5045361;28;20049;-70
2022/06/17 01:07:54;;;;;;;10.50;2.58;;;;;;;14.11;59.27;99523.56;5036353;28;20049;-69
2022/06/17 01:10:21;;;;;;;12.57;2.80;;;;;;;14.14;59.83;99522.13;5025812;28;20574;-69
2022/06/17 01:12:55;;;;;;;15.18;3.20;;;;;;;14.18;60.11;99520.41;5007311;28;20045;-70
2022/06/17 01:15:26;;;;;;;17.48;3.22;;;;;;;14.21;59.74;99521.72;5022575;28;20476;-70
2022/06/17 01:17:56;;;;;;;21.25;2.80;;;;;;;14.23;59.12;99517.56;5030685;28;20040;-69
2022/06/17 01:20:24;;;;;;;11.52;2.60;;;;;;;14.29;58.20;99516.31;5045608;28;20467;-76
2022/06/17 01:22:55;;;;;;;12.05;2.30;;;;;;;14.35;58.05;99518.97;5041583;28;20112;-76
2022/06/17 01:25:24;;;;;;;12.05;2.55;;;;;;;14.37;57.44;99514.78;5044833;28;20052;-76
2022/06/17 01:27:52;;;;;;;22.35;3.13;;;;;;;14.37;57.79;99509.28;5045003;28;20060;-75
2022/06/17 01:30:21;;;;;;;16.10;2.70;;;;;;;14.38;57.89;99510.13;5016057;28;20520;-76
2022/06/17 01:32:52;;;;;;;16.85;2.80;;;;;;;14.39;57.74;99501.53;5028097;28;20049;-76
2022/06/17 01:35:20;;;;;;;15.75;3.45;;;;;;;14.40;58.09;99502.38;5029597;28;20041;-76
2022/06/17 01:37:46;;;;;;;15.80;2.53;;;;;;;14.41;58.13;99506.75;5008209;28;20150;-76
2022/06/17 01:40:16;;;;;;;14.07;2.70;;;;;;;14.41;58.42;99504.00;5015825;28;20140;-75
2022/06/17 01:42:42;;;;;;;21.20;3.10;;;;;;;14.42;58.98;99505.63;5024896;28;20866;-73
2022/06/17 01:45:09;;;;;;;18.58;2.58;;;;;;;14.45;58.89;99507.75;5022438;28;20042;-76
2022/06/17 01:47:39;;;;;;;12.35;3.20;;;;;;;14.48;58.71;99507.13;5025001;28;20046;-76
2022/06/17 01:50:08;;;;;;;16.80;2.58;;;;;;;14.49;59.25;99502.47;5027026;28;20048;-75
2022/06/17 01:52:39;;;;;;;10.85;2.90;;;;;;;14.52;59.26;99502.66;5006925;28;20042;-76
2022/06/17 01:55:09;;;;;;;20.80;4.00;;;;;;;14.54;59.12;99505.09;5007051;28;20049;-75
2022/06/17 01:57:43;;;;;;;19.70;2.70;;;;;;;14.60;58.94;99520.38;5006509;28;20053;-75
2022/06/17 02:00:17;;;;;;;11.57;3.05;;;;;;;14.56;58.96;99517.41;5024168;28;20111;-77
2022/06/17 02:02:50;;;;;;;20.92;3.20;;;;;;;14.63;58.75;99516.19;5044796;28;20417;-76
2022/06/17 02:05:18;;;;;;;12.55;3.10;;;;;;;14.64;58.49;99517.81;5044178;28;20144;-75
2022/06/17 02:07:52;;;;;;;10.82;2.90;;;;;;;14.75;58.27;99513.75;5041291;28;20123;-76
2022/06/17 02:10:19;;;;;;;18.45;2.55;;;;;;;14.80;57.66;99512.81;5042660;28;20053;-69
2022/06/17 02:12:48;;;;;;;14.05;2.75;;;;;;;14.89;57.35;99513.69;5025246;28;20045;-69
2022/06/17 02:15:14;;;;;;;21.50;3.10;;;;;;;14.99;57.47;99518.97;5043892;28;20064;-70
2022/06/17 02:18:04;;;;;;;10.15;1.85;;;;;;;15.01;57.37;99526.91;5042025;28;20064;-69
2022/06/17 02:20:41;;;;;;;13.60;2.53;;;;;;;15.07;57.05;99516.59;5044749;28;20045;-68
2022/06/17 02:23:08;;;;;;;15.98;2.60;;;;;;;15.08;56.80;99520.97;5022981;28;20521;-69
2022/06/17 02:25:39;;;;;;;11.90;2.10;;;;;;;15.08;56.57;99513.53;5023781;28;20051;-70
2022/06/17 02:28:08;;;;;;;5.88;2.03;;;;;;;15.15;57.21;99515.84;5023720;28;20065;-70
2022/06/17 02:30:35;;;;;;;16.88;2.30;;;;;;;15.17;56.84;99517.16;5007538;28;20465;-70
2022/06/17 02:33:04;;;;;;;9.50;2.33;;;;;;;15.22;56.66;99512.66;5008582;28;20065;-70
2022/06/17 02:35:34;;;;;;;7.30;2.10;;;;;;;15.22;57.05;99523.66;5023799;28;20049;-68
2022/06/17 02:38:02;;;;;;;10.18;2.30;;;;;;;15.19;57.04;99516.84;5021206;28;20564;-69
2022/06/17 02:40:31;;;;;;;15.55;2.65;;;;;;;15.26;56.87;99514.47;5038095;28;20501;-68
2022/06/17 02:43:01;;;;;;;9.57;2.15;;;;;;;15.38;56.69;99513.91;5037115;28;20045;-70
2022/06/17 02:45:32;;;;;;;13.15;2.15;;;;;;;15.49;56.44;99511.69;5005088;28;20508;-76
2022/06/17 02:48:04;;;;;;;8.13;2.20;;;;;;;15.63;56.01;99508.03;5006892;28;20127;-75
2022/06/17 02:50:32;;;;;;;17.00;2.38;;;;;;;15.81;55.51;99511.72;5022823;28;20053;-77
2022/06/17 02:53:01;;;;;;;7.18;2.03;;;;;;;15.96;55.12;99514.06;5021078;28;20057;-77
2022/06/17 02:55:32;;;;;;;12.48;2.33;;;;;;;16.11;54.61;99507.31;5017172;28;20052;-75
2022/06/17 02:58:11;;;;;;;11.70;2.58;;;;;;;16.25;53.83;99517.41;5005721;28;20053;-77
2022/06/17 03:00:40;;;;;;;7.25;1.80;;;;;;;16.24;53.79;99515.78;5021069;28;20049;-76
2022/06/17 03:03:09;;;;;;;12.90;1.83;;;;;;;16.17;53.71;99519.00;5004906;28;20510;-77
2022/06/17 03:05:41;;;;;;;8.65;2.00;;;;;;;16.06;54.13;99520.44;5024768;28;20586;-75
2022/06/17 03:08:21;;;;;;;7.22;2.20;;;;;;;16.05;54.09;99524.31;5007609;28;20049;-76
2022/06/17 03:10:48;;;;;;;5.57;1.80;;;;;;;16.08;53.93;99520.91;5024101;28;20524;-76
2022/06/17 03:13:17;;;;;;;;;;;;;;;16.12;54.21;99519.16;5028308;28;20050;-77
2022/06/17 03:15:47;;;;;;;11.00;2.10;;;;;;;16.09;54.43;99522.56;5017090;28;19925;-76
2022/06/17 03:18:15;;;;;;;7.28;2.13;;;;;;;16.04;53.96;99523.50;5041778;28;20053;-74
2022/06/17 03:20:45;;;;;;;;;;;;;;;15.89;54.48;99524.72;5027384;28;20053;-75
2022/06/17 03:23:18;;;;;;;19.10;2.58;;;;;;;15.83;54.87;99523.22;5044100;28;19924;-77
2022/06/17 03:25:53;;;;;;;7.25;1.95;;;;;;;15.87;54.63;99513.19;5026145;28;20049;-77
2022/06/17 03:28:27;;;;;;;10.82;2.30;;;;;;;15.94;54.87;99519.09;5041100;28;20064;-77
2022/06/17 03:31:05;;;;;;;9.65;2.22;;;;;;;16.01;54.62;99519.44;5043471;28;20084;-77
2022/06/17 03:33:37;;;;;;;8.80;1.85;;;;;;;16.07;54.27;99517.34;5042066;28;20143;-77
2022/06/17 03:36:10;;;;;;;13.27;2.00;;;;;;;16.10;54.14;99518.69;5041780;28;20052;-75
2022/06/17 03:38:41;;;;;;;13.00;2.15;;;;;;;16.16;54.63;99518.22;5044699;28;20111;-76
2022/06/17 03:41:12;;;;;;;8.10;2.00;;;;;;;16.24;54.27;99513.03;5046482;28;20436;-76
2022/06/17 03:43:45;;;;;;;11.65;1.90;;;;;;;16.27;54.06;99513.22;5045764;28;20077;-75
2022/06/17 03:46:13;;;;;;;10.77;2.13;;;;;;;16.33;53.93;99513.88;5046305;28;20139;-76
2022/06/17 03:48:45;;;;;;;11.60;2.50;;;;;;;16.42;53.89;99519.41;5046921;28;20103;-76
2022/06/17 03:51:15;;;;;;;11.07;2.00;;;;;;;16.47;53.86;99518.44;5046655;28;20121;-76
2022/06/17 03:53:44;;;;;;;8.48;1.92;;;;;;;16.47;53.53;99510.97;5028490;28;20091;-76
2022/06/17 03:56:16;;;;;;;9.98;2.80;;;;;;;16.49;53.60;99518.94;5046657;28;20455;-76
2022/06/17 03:58:45;;;;;;;12.68;2.28;;;;;;;16.53;53.72;99517.97;5020868;28;20168;-76
2022/06/17 04:01:16;;;;;;;8.05;1.95;;;;;;;16.61;53.90;99524.63;5001995;28;20045;-76
2022/06/17 04:03:49;;;;;;;11.25;1.85;;;;;;;16.65;53.10;99522.03;5015553;28;20045;-76
2022/06/17 04:06:19;;;;;;;20.60;2.58;;;;;;;16.72;53.16;99525.16;5022252;28;20095;-77
2022/06/17 04:08:51;;;;;;;15.98;2.50;;;;;;;16.79;53.17;99519.16;5010925;28;20041;-75
2022/06/17 04:11:18;;;;;;;23.25;3.03;;;;;;;16.79;52.80;99527.44;5034936;28;20539;-76
2022/06/17 04:13:45;;;;;;;13.57;2.72;;;;;;;16.74;53.39;99528.41;5034510;28;20045;-76
2022/06/17 04:16:19;;;;;;;18.60;2.55;;;;;;;16.65;53.38;99522.88;5035894;28;20127;-69
2022/06/17 04:18:45;;;;;;;14.60;2.53;;;;;;;16.58;53.96;99525.28;5026470;28;20072;-69
2022/06/17 04:21:13;;;;;;;13.50;2.22;;;;;;;16.52;53.86;99523.81;5024172;28;20052;-76
2022/06/17 04:23:41;;;;;;;11.23;2.78;;;;;;;16.49;54.10;99518.94;5008804;28;20052;-77
2022/06/17 04:26:18;;;;;;;11.75;2.20;;;;;;;16.48;54.04;99518.13;5024521;28;20064;-76
2022/06/17 04:28:52;;;;;;;13.00;2.30;;;;;;;16.55;53.73;99514.88;5006919;28;20517;-76
2022/06/17 04:31:26;;;;;;;17.63;2.25;;;;;;;16.68;53.36;99516.69;5022532;28;20567;-70
2022/06/17 04:34:03;;;;;;;14.73;2.63;;;;;;;16.81;53.19;99517.69;5022800;28;20064;-70
2022/06/17 04:36:33;;;;;;;7.72;2.10;;;;;;;16.91;52.76;99512.97;5022336;28;20109;-69
2022/06/17 04:39:05;;;;;;;10.77;1.98;;;;;;;17.00;52.38;99514.63;5024722;28;20045;-69
2022/06/17 04:41:43;;;;;;;6.65;1.95;;;;;;;17.07;52.28;99511.38;5023959;28;20057;-70
2022/06/17 04:44:14;;;;;;;9.98;2.05;;;;;;;17.14;52.09;99517.22;5023168;28;20055;-70
2022/06/17 04:46:44;;;;;;;;;;;;;;;17.13;51.91;99515.59;5021311;28;20045;-70
2022/06/17 04:49:23;;;;;;;11.00;1.90;;;;;;;17.13;51.72;99512.81;4991829;28;20067;-69
2022/06/17 04:51:57;;;;;;;7.78;2.05;;;;;;;17.13;51.78;99510.06;5023921;28;20060;-70
2022/06/17 04:54:24;;;;;;;8.25;2.00;;;;;;;17.16;51.96;99508.63;5023895;28;20064;-68
2022/06/17 04:57:08;;;;;;;6.10;1.90;;;;;;;17.19;51.85;99505.19;5007650;28;20524;-67
2022/06/17 04:59:47;;;;;;;13.45;2.13;;;;;;;17.26;52.00;99513.00;5009415;28;20057;-70
2022/06/17 05:02:20;;;;;;;11.52;2.22;;;;;;;17.37;51.84;99505.16;5021007;28;20045;-69
2022/06/17 05:04:55;;;;;;;11.57;2.00;;;;;;;17.47;51.51;99504.84;4989799;28;20049;-70
2022/06/17 05:07:21;;;;;;;13.57;2.20;;;;;;;17.56;51.39;99502.88;5034330;28;20079;-70
2022/06/17 05:09:51;;;;;;;11.50;2.13;;;;;;;17.63;51.38;99501.53;5040238;28;20064;-70
2022/06/17 05:12:27;;;;;;;10.95;2.30;;;;;;;17.68;51.49;99510.47;5041978;28;20041;-70
2022/06/17 05:14:59;;;;;;;14.43;2.08;;;;;;;17.72;50.88;99510.63;5025527;28;20136;-69
2022/06/17 05:17:27;;;;;;;8.50;1.70;;;;;;;17.69;50.77;99514.03;5021307;28;20508;-69
2022/06/17 05:19:53;;;;;;;6.30;1.90;;;;;;;17.69;50.95;99511.25;5004053;28;20145;-69
2022/06/17 05:22:25;;;;;;;5.68;1.67;;;;;;;17.79;50.53;99515.63;5026154;28;20077;-76
2022/06/17 05:24:52;;;;;;;13.30;2.45;;;;;;;17.90;50.52;99518.84;5029055;28;20052;-77
2022/06/17 05:27:18;;;;;;;9.20;2.40;;;;;;;17.91;50.56;99518.50;5033198;28;20299;-69
2022/06/17 05:29:45;;;;;;;10.07;1.95;;;;;;;17.93;49.80;99516.22;5023513;28;20045;-69
2022/06/17 05:32:13;;;;;;;7.75;2.30;;;;;;;18.05;49.87;99509.22;5007537;28;20148;-70
2022/06/17 05:34:43;;;;;;;8.88;2.22;;;;;;;18.13;50.20;99505.63;5021954;28;20401;-69
2022/06/17 05:37:10;;;;;;;7.80;1.92;;;;;;;18.23;49.83;99504.41;5007379;28;20048;-70
2022/06/17 05:39:40;;;;;;;11.25;2.10;;;;;;;18.37;49.15;99505.00;5038735;28;20053;-77
2022/06/17 05:42:07;;;;;;;9.60;1.80;;;;;;;18.41;49.38;99503.16;5027828;28;20064;-69
2022/06/17 05:44:34;;;;;;;10.27;1.85;;;;;;;18.55;48.71;99504.88;5007411;28;20295;-76
2022/06/17 05:47:36;;;;;;;9.57;2.15;;;;;;;18.77;48.19;99503.75;4995777;28;20053;-77
2022/06/17 05:50:27;;;;;;;7.30;1.88;;;;;;;19.01;47.68;99502.25;5008655;28;20045;-76
2022/06/17 05:53:12;;;;;;;6.93;1.90;;;;;;;19.17;46.51;99502.47;5023699;28;20135;-69
2022/06/17 05:55:46;;;;;;;7.10;2.05;;;;;;;19.21;46.07;99499.84;5014810;28;20045;-76
2022/06/17 05:58:12;;;;;;;10.60;2.08;;;;;;;19.40;45.77;99497.34;5025974;28;20048;-76
2022/06/17 06:00:39;;;;;;;9.05;1.95;;;;;;;19.55;45.39;99489.53;5027260;28;20045;-76
2022/06/17 06:03:07;;;;;;;11.25;3.20;;;;;;;19.70;45.52;99490.81;5039149;28;20071;-76
2022/06/17 06:05:37;;;;;;;11.48;2.05;;;;;;;19.81;44.73;99491.19;5022942;28;20057;-76
2022/06/17 06:08:08;;;;;;;9.07;2.00;;;;;;;19.87;44.67;99484.25;5032655;28;20044;-76
2022/06/17 06:10:35;;;;;;;10.27;2.53;;;;;;;19.97;44.61;99477.47;5055875;28;20044;-77
2022/06/17 06:13:05;;;;;;;6.40;2.00;;;;;;;20.09;44.27;99473.88;5024669;28;20647;-69
2022/06/17 06:15:41;;;;;;;17.85;2.20;;;;;;;20.07;44.08;99465.94;5026264;28;20045;-70
2022/06/17 06:18:20;;;;;;;9.95;1.90;;;;;;;19.83;43.24;99472.25;5039164;28;20472;-69
2022/06/17 06:20:48;;;;;;;5.03;2.10;;;;;;;19.54;43.03;99474.06;5031155;28;20052;-69
2022/06/17 06:23:14;;;;;;;6.05;1.70;;;;;;;19.36;43.41;99474.25;5036992;28;20073;-71
2022/06/17 06:25:41;;;;;;;13.30;2.35;;;;;;;19.38;42.92;99471.94;5037750;28;20134;-76
2022/06/17 06:28:09;;;;;;;8.02;1.65;;;;;;;19.47;42.66;99469.06;4993422;28;20071;-77
2022/06/17 06:30:36;;;;;;;15.32;1.70;;;;;;;19.61;42.35;99462.41;5042149;28;20168;-76
2022/06/17 06:33:03;;;;;;;6.47;2.03;;;;;;;19.80;42.25;99461.81;5048996;28;20190;-77
2022/06/17 06:35:34;;;;;;;12.13;2.00;;;;;;;19.81;41.46;99458.72;5043562;28;20051;-76
2022/06/17 06:38:05;;;;;;;6.18;1.55;;;;;;;19.98;41.31;99463.28;5036653;28;20049;-77
2022/06/17 06:40:33;;;;;;;12.70;2.13;;;;;;;19.97;40.96;99469.16;5039549;28;20562;-77
2022/06/17 06:42:59;;;;;;;5.57;1.52;;;;;;;19.99;40.49;99464.06;5034909;28;20538;-70
2022/06/17 06:45:46;;;;;;;7.97;1.60;;;;;;;20.06;39.78;99467.09;5034729;28;21098;-76
2022/06/17 06:48:15;;;;;;;5.78;1.50;;;;;;;19.97;40.16;99464.41;5016600;28;20048;-71
2022/06/17 06:50:45;;;;;;;6.15;1.35;;;;;;;20.01;40.56;99456.19;5013262;28;20045;-70
2022/06/17 06:53:12;;;;;;;18.20;2.00;;;;;;;20.08;40.55;99459.22;5038054;28;20519;-70
2022/06/17 06:55:39;;;;;;;14.07;1.95;;;;;;;20.18;40.20;99455.16;5037748;28;20071;-70
2022/06/17 06:58:10;;;;;;;25.92;1.98;;;;;;;20.33;39.49;99456.41;5021104;28;20041;-69
2022/06/17 07:00:44;;;;;;;11.50;1.58;;;;;;;20.54;38.66;99447.13;5032006;28;20037;-76
2022/06/17 07:03:11;;;;;;;12.05;2.08;;;;;;;20.62;38.72;99450.94;5019265;28;20065;-70
2022/06/17 07:05:40;;;;;;;11.93;1.88;;;;;;;20.76;38.68;99445.78;5034767;28;20548;-70
2022/06/17 07:08:10;;;;;;;15.05;1.77;;;;;;;20.66;39.00;99451.84;5036958;28;20045;-70
2022/06/17 07:10:38;;;;;;;13.55;1.90;;;;;;;20.62;38.84;99454.50;5043738;28;20049;-70
2022/06/17 07:13:08;;;;;;;11.02;1.60;;;;;;;20.80;38.73;99452.28;4686001;28;9999667;-70
2022/06/17 07:15:35;;;;;;;11.35;1.45;;;;;;;20.99;38.12;99452.78;5044858;28;20041;-76
2022/06/17 07:18:05;;;;;;;8.93;1.65;;;;;;;21.04;37.94;99452.53;5051632;28;20044;-76
2022/06/17 07:20:37;;;;;;;13.70;1.73;;;;;;;21.11;37.55;99441.59;5046871;28;20049;-70
2022/06/17 07:23:03;;;;;;;8.25;1.60;;;;;;;21.16;37.47;99446.94;5038480;28;20521;-70
2022/06/17 07:25:30;;;;;;;11.57;1.83;;;;;;;21.23;37.64;99446.31;5043871;28;20057;-70
2022/06/17 07:27:57;;;;;;;9.27;2.03;;;;;;;21.17;38.14;99442.16;5034191;28;20304;-70
2022/06/17 07:30:24;;;;;;;5.78;1.95;;;;;;;21.21;38.51;99440.28;5041660;28;20473;-71
2022/06/17 07:32:50;;;;;;;10.85;2.00;;;;;;;21.36;38.52;99439.50;5037633;28;20582;-70
2022/06/17 07:35:16;;;;;;;9.25;1.83;;;;;;;21.61;37.64;99436.56;5040050;28;20250;-70
2022/06/17 07:40:30;;;;;;;15.93;1.80;;;;;;;21.94;36.17;99445.75;5027769;28;20484;-70
2022/06/17 07:42:59;;;;;;;6.38;1.67;;;;;;;22.09;35.36;99444.09;5035472;28;20676;-70
2022/06/17 07:45:26;;;;;;;5.15;1.80;;;;;;;22.51;35.04;99437.91;5042345;28;20155;-70
2022/06/17 07:47:53;;;;;;;3.45;1.60;;;;;;;22.88;34.95;99453.41;5035045;28;20049;-71
2022/06/17 07:50:23;;;;;;;4.82;1.88;;;;;;;22.69;35.68;99439.44;5034039;28;20543;-70
2022/06/17 07:52:49;;;;;;;8.18;2.17;;;;;;;22.28;36.42;99428.59;5039341;28;20049;-70
2022/06/17 07:55:16;;;;;;;6.30;1.88;;;;;;;22.22;36.59;99434.47;5041721;28;20049;-69
2022/06/17 07:57:43;;;;;;;9.93;1.80;;;;;;;22.43;36.29;99438.09;5035758;28;20193;-77
2022/06/17 08:00:21;;;;;;;8.48;1.88;;;;;;;22.45;36.08;99439.31;5039343;28;20265;-76
2022/06/17 08:02:47;;;;;;;13.50;2.00;;;;;;;21.98;37.61;99432.72;5054933;28;20385;-77
2022/06/17 08:05:14;;;;;;;9.55;1.85;;;;;;;21.75;38.05;99425.00;5044147;28;20045;-76
2022/06/17 08:07:40;;;;;;;19.60;2.53;;;;;;;21.47;38.60;99428.69;5040608;28;20060;-76
2022/06/17 08:10:07;;;;;;;8.53;1.90;;;;;;;21.20;39.06;99422.81;5040207;28;20049;-76
2022/06/17 08:12:33;;;;;;;14.20;2.25;;;;;;;21.07;39.43;99433.19;5016894;28;20076;-70
2022/06/17 08:15:03;;;;;;;8.82;2.10;;;;;;;20.94;38.96;99439.97;5028364;28;20044;-70
2022/06/17 08:17:31;;;;;;;8.45;2.17;;;;;;;20.77;39.73;99436.28;5039278;28;20408;-76
2022/06/17 08:19:58;;;;;;;16.58;2.28;;;;;;;20.63;41.04;99450.56;5035659;28;20064;-70
2022/06/17 08:22:25;;;;;;;29.20;3.43;;;;;;;18.94;57.74;99461.22;5045646;28;20041;-75
2022/06/17 08:24:51;;;;;;;;;;;;;;;16.87;66.96;99474.97;5045970;28;20060;-76
2022/06/17 08:27:18;;;;;;;9.23;2.10;;;;;;;15.66;72.54;99447.59;5043201;28;19925;-75
2022/06/17 08:29:44;;;;;;;7.75;2.42;;;;;;;15.29;74.66;99444.16;5037341;28;20041;-70
2022/06/17 08:34:56;;;;;;;7.82;2.00;;;;;;;16.31;69.58;99441.63;5038375;28;20041;-70
2022/06/17 08:37:22;;;;;;;4.88;2.00;;;;;;;17.16;65.41;99431.28;5040099;28;20060;-71
2022/06/17 08:39:50;;;;;;;13.77;2.38;;;;;;;17.50;62.29;99428.75;5039058;28;20045;-71
2022/06/17 08:42:30;;;;;;;5.20;2.10;;;;;;;17.94;57.60;99425.78;5038176;28;20102;-70
2022/06/17 08:45:05;;;;;;;6.60;2.08;;;;;;;18.82;55.90;99425.19;5038122;28;20415;-73
2022/06/17 08:47:52;;;;;;;12.10;2.45;;;;;;;19.68;54.71;99419.09;5033206;28;20512;-75
2022/06/17 08:50:56;;;;;;;8.75;2.30;;;;;;;20.51;50.39;99393.09;5038871;28;20222;-70
2022/06/17 08:53:54;;;;;;;7.38;2.00;;;;;;;20.79;45.84;99410.91;5044931;28;20148;-71
2022/06/17 08:56:28;;;;;;;10.82;2.10;;;;;;;20.45;46.31;99405.63;5032418;28;20056;-74
2022/06/17 08:59:13;;;;;;;12.20;2.25;;;;;;;20.33;48.60;99408.41;5041388;28;20052;-75
2022/06/17 09:01:46;;;;;;;7.93;2.10;;;;;;;20.36;49.05;99414.06;5035702;28;20041;-71
2022/06/17 09:04:26;;;;;;;5.10;1.90;;;;;;;19.99;45.65;99400.25;5041946;28;20041;-71
2022/06/17 09:07:08;;;;;;;7.32;2.10;;;;;;;19.62;46.47;99406.59;5043514;28;20045;-70
2022/06/17 09:10:05;;;;;;;9.57;1.88;;;;;;;19.51;47.80;99417.31;5047083;28;20049;-71
2022/06/17 09:12:41;;;;;;;10.32;2.28;;;;;;;19.47;47.80;99410.03;5036585;28;20069;-71
2022/06/17 09:15:15;;;;;;;17.20;2.40;;;;;;;19.32;47.31;99426.19;5041297;28;20056;-71
2022/06/17 09:17:54;;;;;;;12.88;2.10;;;;;;;19.17;47.45;99435.13;5033730;28;20397;-70
2022/06/17 09:20:26;;;;;;;19.55;1.80;;;;;;;19.10;48.33;99432.94;5052381;28;20189;-71
2022/06/17 09:22:57;;;;;;;10.35;1.98;;;;;;;18.99;49.04;99452.75;5044037;28;20995;-71
2022/06/17 09:25:29;;;;;;;6.75;1.67;;;;;;;19.03;49.02;99443.75;5035987;28;20041;-71
2022/06/17 09:27:57;;;;;;;7.72;1.92;;;;;;;19.15;49.22;99443.00;5032214;28;20521;-71
2022/06/17 09:30:26;;;;;;;;;;;;;;;19.45;48.33;99443.66;5035189;28;20064;-71
2022/06/17 09:32:55;;;;;;;10.52;2.10;;;;;;;19.74;47.98;99452.91;5040362;28;20007;-72
2022/06/17 09:35:29;;;;;;;7.93;1.90;;;;;;;20.29;46.28;99444.38;5040937;28;20068;-71
2022/06/17 09:38:00;;;;;;;9.57;1.90;;;;;;;20.91;43.86;99451.75;5038345;28;20041;-70
2022/06/17 09:40:30;;;;;;;6.05;1.85;;;;;;;21.26;42.44;99442.81;5038260;28;20045;-71
2022/06/17 09:43:07;;;;;;;8.40;2.00;;;;;;;21.76;40.16;99457.22;5039033;28;20111;-71
2022/06/17 09:45:37;;;;;;;;;;;;;;;22.39;39.95;99451.94;5020150;28;20051;-70
2022/06/17 09:48:08;;;;;;;10.07;2.10;;;;;;;23.22;37.86;99450.88;5037212;28;20315;-70
2022/06/17 09:50:41;;;;;;;13.40;2.20;;;;;;;24.06;36.65;99439.19;5042444;28;20049;-70
2022/06/17 09:53:13;;;;;;;11.45;2.17;;;;;;;25.19;35.40;99443.44;5038206;28;20363;-71
2022/06/17 09:55:44;;;;;;;7.07;2.10;;;;;;;26.08;32.73;99444.66;5025738;28;20072;-70
2022/06/17 09:58:17;;;;;;;8.25;2.20;;;;;;;26.44;32.15;99441.28;5034296;28;20522;-76
2022/06/17 10:00:47;;;;;;;8.18;2.20;;;;;;;26.83;31.35;99445.47;5040516;28;20057;-76
2022/06/17 10:03:24;;;;;;;7.97;1.73;;;;;;;26.80;31.54;99435.84;5047993;28;20048;-75
2022/06/17 10:05:59;;;;;;;8.15;2.17;;;;;;;26.85;31.71;99426.25;5053929;28;20060;-75
2022/06/17 10:08:39;;;;;;;8.18;1.90;;;;;;;27.30;30.77;99440.03;5049538;28;20048;-76
2022/06/17 10:11:15;;;;;;;7.65;2.20;;;;;;;27.85;29.79;99435.25;5024870;28;20037;-76
2022/06/17 10:13:52;;;;;;;8.35;2.10;;;;;;;28.16;29.44;99422.44;5050271;28;20592;-76
2022/06/17 10:19:23;;;;;;;9.80;2.40;;;;;;;28.31;27.84;99422.41;5046492;28;20057;-75
2022/06/17 10:22:10;;;;;;;5.93;2.20;;;;;;;28.86;28.14;99411.75;5042851;28;20053;-76
2022/06/17 10:24:52;;;;;;;9.75;2.20;;;;;;;29.69;26.90;99419.66;5038462;28;20132;-75
2022/06/17 10:27:32;;;;;;;6.63;1.83;;;;;;;28.90;26.17;99418.19;5045349;28;20485;-76
2022/06/17 10:30:04;;;;;;;5.55;2.10;;;;;;;27.39;28.82;99408.78;5044316;28;20044;-76
2022/06/17 10:32:33;;;;;;;5.97;2.20;;;;;;;26.88;29.99;99405.88;5045553;28;20072;-76
2022/06/17 10:35:03;;;;;;;11.98;2.58;;;;;;;27.79;28.74;99395.56;5043869;28;20139;-75
2022/06/17 10:37:34;;;;;;;10.10;2.72;;;;;;;28.79;27.36;99389.28;5039769;28;20051;-76
2022/06/17 10:40:02;;;;;;;8.88;2.10;;;;;;;29.27;27.70;99391.41;5041692;28;20052;-75
2022/06/17 10:42:29;;;;;;;7.82;2.70;;;;;;;27.91;29.35;99382.31;5038642;28;20060;-76
2022/06/17 10:44:59;;;;;;;15.32;2.22;;;;;;;27.50;29.53;99386.31;5043251;28;20052;-75
2022/06/17 10:47:36;;;;;;;5.63;2.05;;;;;;;26.58;30.73;99385.31;5044994;28;20048;-76
2022/06/17 10:50:03;;;;;;;;;;;;;;;25.24;33.38;99375.19;5029744;28;20459;-77
2022/06/17 10:52:37;;;;;;;5.80;2.10;;;;;;;24.34;34.63;99384.09;5041472;28;19924;-76
2022/06/17 10:55:09;;;;;;;8.88;2.13;;;;;;;23.45;35.61;99402.69;5038563;28;20405;-76
2022/06/17 10:57:39;;;;;;;9.00;2.35;;;;;;;22.51;38.98;99393.34;5038352;28;20041;-69
2022/06/17 11:00:23;;;;;;;10.40;2.50;;;;;;;21.98;41.28;99392.94;5019379;28;20463;-70
2022/06/17 11:02:50;;;;;;;16.27;3.10;;;;;;;21.73;42.55;99395.94;5023660;28;20037;-70
2022/06/17 11:05:31;;;;;;;13.63;2.78;;;;;;;21.51;42.89;99385.06;5054082;28;20131;-70
2022/06/17 11:07:57;;;;;;;13.70;2.72;;;;;;;21.47;43.23;99386.97;5045290;28;20044;-69
2022/06/17 11:10:29;;;;;;;11.77;2.88;;;;;;;21.69;43.11;99390.28;5049821;28;20045;-75
2022/06/17 11:12:58;;;;;;;12.15;3.30;;;;;;;22.31;41.74;99391.66;5052789;28;20049;-70
2022/06/17 11:15:28;;;;;;;12.35;2.70;;;;;;;23.14;40.15;99384.19;5042326;28;20049;-70
2022/06/17 11:17:58;;;;;;;9.75;2.63;;;;;;;23.42;39.27;99381.13;5041446;28;20134;-69
2022/06/17 11:20:27;;;;;;;9.70;2.75;;;;;;;23.15;40.26;99381.03;5045722;28;20037;-69
2022/06/17 11:22:55;;;;;;;13.13;2.78;;;;;;;22.89;40.96;99385.34;5019689;28;20063;-70
2022/06/17 11:25:28;;;;;;;14.80;3.03;;;;;;;22.69;41.67;99383.72;5044601;28;20045;-71
2022/06/17 11:27:56;;;;;;;18.27;3.15;;;;;;;22.46;42.49;99382.44;5046940;28;20049;-70
2022/06/17 11:30:27;;;;;;;12.70;2.80;;;;;;;22.52;42.14;99391.34;5038315;28;20064;-76
2022/06/17 11:32:56;;;;;;;16.70;3.15;;;;;;;22.69;42.35;99394.88;5046308;28;20060;-76
2022/06/17 11:35:37;;;;;;;13.88;2.72;;;;;;;22.71;41.78;99387.78;5031386;28;20068;-75
2022/06/17 11:38:11;;;;;;;15.57;2.40;;;;;;;22.49;42.22;99387.34;5055690;28;20053;-75
2022/06/17 11:40:49;;;;;;;10.82;2.60;;;;;;;22.11;43.06;99397.22;5044450;28;20049;-77
2022/06/17 11:43:27;;;;;;;11.18;2.80;;;;;;;21.66;44.39;99389.03;5056363;28;20084;-78
2022/06/17 11:45:54;;;;;;;14.52;3.28;;;;;;;21.29;45.75;99386.50;5039233;28;20574;-76
2022/06/17 11:48:22;;;;;;;9.52;2.40;;;;;;;20.72;47.18;99385.75;5049283;28;20098;-76
2022/06/17 11:51:02;;;;;;;9.40;2.28;;;;;;;20.21;48.23;99404.50;5041176;28;20436;-76
2022/06/17 11:53:30;;;;;;;18.27;2.97;;;;;;;19.73;49.79;99414.47;5040745;28;20585;-78
2022/06/17 11:55:59;;;;;;;23.45;3.33;;;;;;;19.35;50.56;99411.63;5045369;28;20045;-75
2022/06/17 11:58:25;;;;;;;23.25;2.63;;;;;;;18.99;50.28;99402.06;5045396;28;20049;-75